Time;durP1;ratioP1;P1;durP2;ratioP2;P2;SDS_P1;SDS_P2;PMS_P1;PMS_P2;Temp;Humidity;BMP_temperature;BMP_pressure;BME280_temperature;BME280_humidity;BME280_pressure;Samples;Min_cycle;Max_cycle;Signal;HPM_P1;HPM_P2
2022/03/15 00:01:26;;;;;;;144.07;49.77;;;;;;;0.16;65.44;96532.28;5072116;28;20174;-85
2022/03/15 00:03:52;;;;;;;121.90;47.00;;;;;;;-0.01;65.89;96499.78;5072204;28;20627;-86
2022/03/15 00:06:17;;;;;;;134.17;52.97;;;;;;;0.28;65.97;96541.78;5054505;28;20181;-85
2022/03/15 00:08:47;;;;;;;140.73;51.33;;;;;;;0.02;66.18;96497.91;5054049;28;20176;-85
2022/03/15 00:11:14;;;;;;;131.27;49.80;;;;;;;0.10;65.56;96527.50;5072877;28;20151;-87
2022/03/15 00:13:40;;;;;;;131.87;48.83;;;;;;;0.48;66.08;96591.38;5054475;28;20565;-85
2022/03/15 00:16:08;;;;;;;118.67;45.53;;;;;;;0.46;66.75;96585.47;5072416;28;20154;-85
2022/03/15 00:18:34;;;;;;;107.03;41.40;;;;;;;0.36;66.34;96573.16;5073070;28;20204;-85
2022/03/15 00:21:02;;;;;;;71.03;29.40;;;;;;;0.09;66.21;96522.47;5054450;28;20178;-85
2022/03/15 00:23:28;;;;;;;70.23;28.73;;;;;;;0.09;65.64;96523.25;5054351;28;20190;-85
2022/03/15 00:25:54;;;;;;;65.27;27.40;;;;;;;0.33;66.03;96565.63;5072642;28;20218;-85
2022/03/15 00:28:24;;;;;;;48.83;20.87;;;;;;;-0.10;65.67;96515.94;5072624;28;20216;-85
2022/03/15 00:30:50;;;;;;;59.13;26.13;;;;;;;0.22;66.40;96575.88;5054425;28;20664;-85
2022/03/15 00:33:16;;;;;;;52.97;21.97;;;;;;;0.16;65.99;96553.00;5054145;28;20279;-85
2022/03/15 00:35:42;;;;;;;56.57;22.80;;;;;;;-0.28;65.84;96482.72;5072177;28;20159;-85
2022/03/15 00:38:10;;;;;;;56.87;23.17;;;;;;;0.34;65.62;96572.44;5054303;28;20213;-85
2022/03/15 00:40:36;;;;;;;53.33;22.50;;;;;;;0.31;66.01;96572.66;5073090;28;20174;-85
2022/03/15 00:43:02;;;;;;;64.90;29.10;;;;;;;0.29;66.01;96571.09;5071451;28;20882;-85
2022/03/15 00:45:28;;;;;;;54.10;21.47;;;;;;;-0.24;65.55;96479.00;5072273;28;20223;-85
2022/03/15 00:47:55;;;;;;;51.30;20.67;;;;;;;0.29;65.24;96573.69;5072109;28;20182;-86
2022/03/15 00:50:22;;;;;;;42.43;18.63;;;;;;;-0.09;64.85;96512.41;5053514;28;20170;-85
2022/03/15 00:52:51;;;;;;;48.30;20.77;;;;;;;0.35;65.27;96563.72;5071413;28;20163;-85
2022/03/15 00:55:17;;;;;;;46.20;18.40;;;;;;;-0.22;64.94;96465.03;5071372;28;20213;-85
2022/03/15 00:57:44;;;;;;;40.97;16.23;;;;;;;0.22;64.93;96546.56;5071839;28;20169;-85
2022/03/15 01:00:11;;;;;;;37.57;15.53;;;;;;;-0.26;64.39;96465.34;5056322;28;20174;-85
2022/03/15 01:02:37;;;;;;;44.10;15.63;;;;;;;0.26;64.89;96548.00;5072054;28;20976;-85
2022/03/15 01:05:04;;;;;;;39.97;17.27;;;;;;;-0.23;65.11;96465.13;5054076;28;20262;-85
2022/03/15 01:07:29;;;;;;;37.07;15.90;;;;;;;-0.12;65.58;96479.00;5072020;28;20639;-85
2022/03/15 01:09:55;;;;;;;42.83;16.30;;;;;;;-0.46;65.33;96430.50;5058266;28;20173;-85
2022/03/15 01:12:20;;;;;;;39.07;16.93;;;;;;;-0.46;65.18;96444.25;5060019;28;20177;-84
2022/03/15 01:14:46;;;;;;;41.13;16.97;;;;;;;-0.21;66.00;96513.25;5062923;28;20631;-84
2022/03/15 01:17:12;;;;;;;44.97;17.00;;;;;;;-0.50;67.15;96473.00;5062450;28;20169;-87
2022/03/15 01:19:37;;;;;;;37.30;16.47;;;;;;;-0.58;66.49;96457.16;5075944;28;20646;-85
2022/03/15 01:22:03;;;;;;;38.30;16.50;;;;;;;-0.44;66.75;96478.59;5076387;28;20186;-87
2022/03/15 01:24:29;;;;;;;42.60;18.43;;;;;;;-0.47;66.95;96473.63;5057629;28;20225;-87
2022/03/15 01:26:56;;;;;;;39.10;15.73;;;;;;;-0.62;67.47;96447.97;5075365;28;20711;-87
2022/03/15 01:29:25;;;;;;;40.93;17.30;;;;;;;-0.30;67.21;96497.53;5057085;28;20179;-87
2022/03/15 01:31:51;;;;;;;48.83;21.93;;;;;;;-0.52;67.11;96472.28;5053278;28;20434;-84
2022/03/15 01:34:16;;;;;;;44.80;18.70;;;;;;;-0.64;67.20;96455.81;5057057;28;20192;-87
2022/03/15 01:36:43;;;;;;;51.03;19.87;;;;;;;-0.03;67.47;96552.59;5075340;28;20230;-87
2022/03/15 01:39:09;;;;;;;44.90;18.43;;;;;;;0.04;66.80;96555.56;5057465;28;20690;-87
2022/03/15 01:41:35;;;;;;;50.80;19.97;;;;;;;-0.37;66.97;96504.88;5075653;28;20171;-87
2022/03/15 01:44:03;;;;;;;51.03;18.43;;;;;;;-0.43;67.58;96515.59;5075458;28;20186;-87
2022/03/15 01:46:29;;;;;;;52.63;19.33;;;;;;;-0.46;67.85;96513.25;5057262;28;20302;-87
2022/03/15 01:48:54;;;;;;;50.90;21.07;;;;;;;-0.51;67.89;96508.38;5075770;28;20201;-87
2022/03/15 01:51:21;;;;;;;63.23;23.77;;;;;;;-0.69;67.87;96483.72;5057230;28;20718;-87
2022/03/15 01:53:46;;;;;;;52.73;20.77;;;;;;;-0.68;68.68;96487.16;5075497;28;20643;-87
2022/03/15 01:56:12;;;;;;;62.13;23.47;;;;;;;-0.78;68.40;96482.59;5075098;28;20166;-87
2022/03/15 01:58:37;;;;;;;81.20;29.57;;;;;;;-0.34;68.00;96565.91;5057095;28;20181;-87
2022/03/15 02:01:03;;;;;;;91.33;31.37;;;;;;;-0.23;68.86;96581.56;5056936;28;20228;-87
2022/03/15 02:03:30;;;;;;;88.20;31.70;;;;;;;-0.66;68.08;96493.88;5056962;28;20166;-87
2022/03/15 02:05:56;;;;;;;114.87;36.43;;;;;;;-0.29;68.67;96563.84;5075100;28;20187;-87
2022/03/15 02:08:21;;;;;;;109.17;36.60;;;;;;;-0.82;68.91;96482.91;5056829;28;20236;-87
2022/03/15 02:10:46;;;;;;;93.33;34.23;;;;;;;-0.61;69.15;96522.03;5075012;28;20166;-86
2022/03/15 02:13:12;;;;;;;83.13;34.17;;;;;;;-0.69;68.94;96513.97;5056362;28;20625;-87
2022/03/15 02:15:38;;;;;;;98.07;31.50;;;;;;;-0.63;69.23;96527.31;5056488;28;20171;-86
2022/03/15 02:18:05;;;;;;;82.83;31.23;;;;;;;-0.73;69.29;96518.50;5074184;28;20174;-87
2022/03/15 02:20:31;;;;;;;86.07;32.37;;;;;;;-0.84;68.62;96493.34;5055214;28;20239;-86
2022/03/15 02:22:57;;;;;;;94.47;30.10;;;;;;;-0.58;68.68;96529.56;5074576;28;20154;-87
2022/03/15 02:25:24;;;;;;;76.83;26.77;;;;;;;-0.77;69.18;96493.75;5075461;28;20187;-87
2022/03/15 02:27:51;;;;;;;58.37;24.47;;;;;;;-0.72;68.86;96490.88;5074723;28;20198;-87
2022/03/15 02:30:16;;;;;;;82.30;36.13;;;;;;;-0.79;68.60;96478.38;5056418;28;20166;-86
2022/03/15 02:32:47;;;;;;;56.27;24.90;;;;;;;-1.23;68.30;96408.09;5056378;28;20233;-87
2022/03/15 02:35:13;;;;;;;49.73;21.30;;;;;;;-0.82;68.70;96469.97;5074568;28;20150;-87
2022/03/15 02:37:39;;;;;;;57.63;23.57;;;;;;;-0.93;68.37;96459.50;5074554;28;20166;-87
2022/03/15 02:40:06;;;;;;;75.77;32.27;;;;;;;-1.03;68.49;96463.63;5056312;28;20635;-87
2022/03/15 02:42:32;;;;;;;89.90;42.80;;;;;;;-0.64;69.35;96537.75;5056347;28;20170;-87
2022/03/15 02:44:58;;;;;;;126.77;59.07;;;;;;;-1.04;69.69;96477.50;5074064;28;20202;-87
2022/03/15 02:47:23;;;;;;;144.10;65.30;;;;;;;-1.21;69.98;96458.72;5056388;28;20650;-87
2022/03/15 02:49:49;;;;;;;118.23;57.87;;;;;;;-1.24;69.95;96460.69;5056186;28;20170;-88
2022/03/15 02:52:17;;;;;;;124.33;60.37;;;;;;;-1.17;70.15;96470.53;5074005;28;20170;-87
2022/03/15 02:54:43;;;;;;;147.85;76.50;;;;;;;-1.03;70.63;96499.78;5054545;28;20497;-87
2022/03/15 02:57:10;;;;;;;124.17;56.30;;;;;;;-1.04;70.46;96493.00;5055548;28;20261;-87
2022/03/15 02:59:38;;;;;;;126.07;54.03;;;;;;;-0.64;69.84;96548.09;5055447;28;20251;-88
2022/03/15 03:02:04;;;;;;;126.93;56.97;;;;;;;-1.30;69.97;96443.84;5073508;28;20171;-88
2022/03/15 03:04:30;;;;;;;121.87;53.93;;;;;;;-1.28;70.13;96439.38;5055713;28;20195;-88
2022/03/15 03:06:55;;;;;;;109.97;45.80;;;;;;;-1.09;70.10;96464.84;5055977;28;20186;-86
2022/03/15 03:09:21;;;;;;;127.90;48.47;;;;;;;-0.91;70.35;96491.25;5055918;28;20255;-89
2022/03/15 03:11:47;;;;;;;140.50;48.70;;;;;;;-1.04;70.12;96462.81;5055879;28;20166;-88
2022/03/15 03:14:13;;;;;;;119.47;45.20;;;;;;;-0.95;69.59;96479.47;5073633;28;20185;-88
2022/03/15 03:16:40;;;;;;;109.70;42.93;;;;;;;-1.19;69.84;96453.47;5073326;28;20622;-89
2022/03/15 03:19:08;;;;;;;105.00;43.90;;;;;;;-1.23;70.13;96442.50;5055300;28;20732;-89
2022/03/15 03:21:36;;;;;;;87.03;39.73;;;;;;;-1.09;69.96;96464.84;5073246;28;20167;-88
2022/03/15 03:24:06;;;;;;;82.37;35.93;;;;;;;-0.76;70.05;96521.25;5055500;28;20173;-89
2022/03/15 03:26:37;;;;;;;81.20;33.23;;;;;;;-0.84;70.36;96505.44;5054968;28;20175;-87
2022/03/15 03:29:09;;;;;;;86.77;36.97;;;;;;;-0.78;70.32;96515.38;5059675;28;20166;-87
2022/03/15 03:31:37;;;;;;;75.97;32.93;;;;;;;-1.06;69.92;96462.09;5055104;28;20175;-86
2022/03/15 03:34:04;;;;;;;72.43;33.77;;;;;;;-0.84;69.67;96501.09;5056407;28;20165;-88
2022/03/15 03:36:31;;;;;;;82.00;34.07;;;;;;;-0.92;69.70;96493.00;5039906;28;20172;-87
2022/03/15 03:38:56;;;;;;;79.07;33.27;;;;;;;-1.14;70.02;96459.19;5056326;28;20166;-88
2022/03/15 03:41:22;;;;;;;93.43;35.23;;;;;;;-1.16;70.00;96466.19;5076100;28;20186;-87
2022/03/15 03:43:49;;;;;;;121.23;50.63;;;;;;;-1.26;70.38;96458.19;5054813;28;20303;-89
2022/03/15 03:46:19;;;;;;;121.93;55.70;;;;;;;-0.82;70.76;96529.44;5071482;28;20434;-87
2022/03/15 03:48:50;;;;;;;123.85;57.25;;;;;;;-1.53;71.15;96413.50;5054384;28;20798;-89
2022/03/15 03:51:18;;;;;;;119.93;57.28;;;;;;;-1.46;70.96;96425.06;5054328;28;20404;-86
2022/03/15 03:53:44;;;;;;;109.60;47.83;;;;;;;-1.58;70.43;96412.97;5073310;28;20223;-89
2022/03/15 03:56:09;;;;;;;118.35;52.38;;;;;;;-1.33;70.14;96456.94;5071953;28;20401;-89
2022/03/15 03:58:35;;;;;;;103.53;41.77;;;;;;;-1.15;70.01;96483.34;5055670;28;20232;-89
2022/03/15 04:01:01;;;;;;;103.40;44.05;;;;;;;-0.97;70.03;96507.16;5053423;28;20918;-87
2022/03/15 04:03:31;;;;;;;72.45;33.40;;;;;;;-1.67;69.33;96390.31;5053417;28;20933;-87
2022/03/15 04:05:57;;;;;;;52.53;23.90;;;;;;;-0.84;69.46;96550.19;5054999;28;20209;-87
2022/03/15 04:08:29;;;;;;;81.13;39.53;;;;;;;-0.69;69.05;96566.47;5071494;28;20394;-87
2022/03/15 04:10:54;;;;;;;88.55;44.22;;;;;;;-1.79;69.29;96409.16;5052598;28;20410;-85
2022/03/15 04:13:20;;;;;;;90.25;47.53;;;;;;;-1.94;69.20;96390.31;5070749;28;20409;-86
2022/03/15 04:15:51;;;;;;;69.77;32.73;;;;;;;-1.48;69.52;96478.59;5054635;28;20185;-87
2022/03/15 04:18:19;;;;;;;68.97;29.30;;;;;;;-1.47;69.11;96482.81;5054520;28;20227;-86
2022/03/15 04:20:45;;;;;;;75.13;34.50;;;;;;;-2.25;68.95;96350.16;5055321;28;20764;-89
2022/03/15 04:23:11;;;;;;;87.68;42.63;;;;;;;-1.94;69.29;96408.38;5071238;28;20409;-89
2022/03/15 04:25:47;;;;;;;;;;;;;;;;;;;;;
2022/03/15 04:28:16;;;;;;;77.17;36.37;;;;;;;-1.50;68.77;96485.59;5073215;28;20157;-89
2022/03/15 04:30:42;;;;;;;101.00;47.87;;;;;;;-1.72;68.96;96444.81;5071208;28;20406;-88
2022/03/15 04:33:17;;;;;;;104.10;50.30;;;;;;;-1.77;69.30;96425.38;5053390;28;20456;-88
2022/03/15 04:35:42;;;;;;;99.23;42.97;;;;;;;-0.80;69.19;96582.69;5054478;28;20165;-87
2022/03/15 04:38:11;;;;;;;102.15;49.25;;;;;;;-1.96;68.46;96374.94;5052800;28;20420;-86
2022/03/15 04:40:39;;;;;;;91.22;47.05;;;;;;;-1.95;69.30;96396.41;5071207;28;20432;-86
2022/03/15 04:43:06;;;;;;;79.50;36.87;;;;;;;-1.32;68.58;96491.34;5081954;28;20182;-88
2022/03/15 04:45:35;;;;;;;73.20;38.10;;;;;;;-1.46;68.43;96456.06;5070923;28;20425;-86
2022/03/15 04:48:01;;;;;;;80.37;37.53;;;;;;;-1.24;68.25;96497.69;5072283;28;20166;-86
2022/03/15 04:50:30;;;;;;;67.23;31.80;;;;;;;-1.10;68.33;96517.44;5054170;28;20223;-86
2022/03/15 04:52:55;;;;;;;83.40;38.87;;;;;;;-1.33;68.05;96484.53;5054377;28;20243;-86
2022/03/15 04:55:21;;;;;;;101.50;41.77;;;;;;;-0.96;67.57;96532.09;5062802;28;20182;-86
2022/03/15 04:57:46;;;;;;;78.57;37.97;;;;;;;-1.09;68.09;96518.28;5071528;28;20170;-86
2022/03/15 05:00:12;;;;;;;82.80;36.67;;;;;;;-0.98;68.26;96528.75;5071296;28;20235;-86
2022/03/15 05:02:43;;;;;;;98.00;39.77;;;;;;;-1.24;68.58;96496.84;5053746;28;20174;-88
2022/03/15 05:05:08;;;;;;;75.97;33.90;;;;;;;-0.66;68.49;96581.78;5054258;28;20200;-89
2022/03/15 05:07:34;;;;;;;65.70;30.67;;;;;;;-0.88;68.90;96514.31;5054229;28;20245;-88
2022/03/15 05:12:44;;;;;;;63.10;29.57;;;;;;;-0.07;65.83;96528.66;5070730;28;20220;-89
2022/03/15 05:15:10;;;;;;;57.67;29.10;;;;;;;1.08;64.56;96592.25;5071733;28;20186;-87
2022/03/15 05:17:36;;;;;;;59.40;31.23;;;;;;;1.35;60.82;96506.44;5053908;28;20178;-87
2022/03/15 05:20:05;;;;;;;66.73;33.00;;;;;;;2.04;58.05;96524.59;5070518;28;20163;-88
2022/03/15 05:22:32;;;;;;;83.27;36.97;;;;;;;2.99;56.10;96506.63;5071178;28;20171;-86
2022/03/15 05:24:58;;;;;;;83.40;41.93;;;;;;;4.63;51.96;96494.56;5053369;28;20197;-87
2022/03/15 05:27:25;;;;;;;78.73;38.47;;;;;;;6.76;45.85;96604.00;5054400;28;20292;-87
2022/03/15 05:29:51;;;;;;;57.57;31.40;;;;;;;7.43;43.35;96560.94;5072284;28;20182;-86
2022/03/15 05:32:16;;;;;;;81.47;41.27;;;;;;;8.69;40.51;96573.69;5053479;28;20714;-87
2022/03/15 05:34:42;;;;;;;77.03;38.07;;;;;;;9.34;38.76;96569.50;5053715;28;20179;-87
2022/03/15 05:37:08;;;;;;;49.93;29.00;;;;;;;8.87;37.97;96555.22;5053347;28;20175;-86
2022/03/15 05:39:34;;;;;;;41.47;23.27;;;;;;;8.05;39.40;96543.41;5053599;28;20179;-85
2022/03/15 05:42:00;;;;;;;49.57;24.43;;;;;;;7.83;40.39;96568.31;5072731;28;20174;-84
2022/03/15 05:44:33;;;;;;;44.60;22.37;;;;;;;7.96;40.68;96515.47;5071206;28;20201;-84
2022/03/15 05:46:58;;;;;;;39.53;23.73;;;;;;;9.27;39.22;96597.41;5054511;28;20247;-84
2022/03/15 05:49:24;;;;;;;56.70;29.23;;;;;;;9.86;37.46;96563.19;5055504;28;20182;-84
2022/03/15 05:51:49;;;;;;;46.13;25.13;;;;;;;10.39;35.86;96502.09;5054069;28;20174;-84
2022/03/15 05:54:15;;;;;;;40.73;22.03;;;;;;;11.60;34.45;96583.28;5071887;28;20187;-84
2022/03/15 05:56:40;;;;;;;48.00;24.37;;;;;;;11.61;33.71;96558.53;5056944;28;20240;-84
2022/03/15 05:59:08;;;;;;;61.90;32.60;;;;;;;11.80;32.67;96535.34;5057256;28;20582;-84
2022/03/15 06:01:34;;;;;;;60.77;33.27;;;;;;;12.66;31.91;96548.09;5056601;28;20166;-84
2022/03/15 06:03:59;;;;;;;76.13;36.17;;;;;;;13.25;31.06;96517.16;5056489;28;20619;-83
2022/03/15 06:06:28;;;;;;;58.67;33.93;;;;;;;14.22;29.49;96536.84;5074789;28;20174;-84
2022/03/15 06:08:53;;;;;;;50.78;30.02;;;;;;;15.18;28.30;96545.84;5073939;28;20166;-84
2022/03/15 06:11:20;;;;;;;100.88;47.22;;;;;;;16.36;27.17;96558.56;5079118;28;20963;-84
2022/03/15 06:13:48;;;;;;;38.92;20.98;;;;;;;17.33;25.71;96609.22;5059487;28;20197;-84
2022/03/15 06:16:13;;;;;;;30.90;18.20;;;;;;;17.91;24.15;96573.75;5063430;28;20194;-84
2022/03/15 06:18:41;;;;;;;32.60;19.65;;;;;;;17.99;23.99;96555.66;5076758;28;20162;-84
2022/03/15 06:21:07;;;;;;;35.17;21.88;;;;;;;18.25;24.02;96553.84;5055896;28;20972;-84
2022/03/15 06:23:32;;;;;;;30.88;19.92;;;;;;;18.64;22.87;96550.88;5056334;28;20174;-84
2022/03/15 06:25:58;;;;;;;36.58;19.60;;;;;;;19.20;23.06;96596.09;5074435;28;20186;-84
2022/03/15 06:28:24;;;;;;;35.85;19.52;;;;;;;19.22;22.46;96529.13;5056465;28;20606;-83
2022/03/15 06:30:49;;;;;;;37.25;21.67;;;;;;;19.80;22.11;96547.34;5056384;28;20163;-83
2022/03/15 06:33:14;;;;;;;31.83;19.20;;;;;;;20.60;20.65;96587.91;5074165;28;20225;-82
2022/03/15 06:35:42;;;;;;;27.35;17.60;;;;;;;21.25;20.05;96559.19;5074462;28;20155;-82
2022/03/15 06:38:09;;;;;;;30.38;17.10;;;;;;;21.36;19.93;96546.81;5073328;28;20603;-82
2022/03/15 06:40:36;;;;;;;23.60;15.40;;;;;;;21.68;19.85;96536.47;5073298;28;20189;-82
2022/03/15 06:43:02;;;;;;;25.80;16.60;;;;;;;22.44;19.69;96605.75;5055004;28;20236;-82
2022/03/15 06:45:28;;;;;;;30.83;16.27;;;;;;;22.80;18.60;96591.09;5073598;28;20194;-83
2022/03/15 06:47:53;;;;;;;33.75;16.88;;;;;;;22.84;18.67;96570.72;5056629;28;20188;-83
2022/03/15 06:50:19;;;;;;;27.35;17.90;;;;;;;23.03;18.80;96575.81;5056442;28;20182;-83
2022/03/15 06:52:48;;;;;;;28.58;17.17;;;;;;;23.03;18.34;96573.13;5073150;28;20245;-83
2022/03/15 06:55:14;;;;;;;31.95;17.88;;;;;;;22.99;18.22;96555.91;5055410;28;20213;-84
2022/03/15 06:57:40;;;;;;;25.90;17.60;;;;;;;22.75;18.17;96582.94;5054907;28;20182;-84
2022/03/15 07:00:10;;;;;;;29.27;17.88;;;;;;;22.24;18.71;96550.91;5053403;28;20654;-84
2022/03/15 07:02:38;;;;;;;30.92;17.85;;;;;;;21.64;19.39;96586.22;5054248;28;20323;-85
2022/03/15 07:05:04;;;;;;;26.52;17.55;;;;;;;20.69;20.39;96547.19;5054989;28;20199;-84
2022/03/15 07:07:30;;;;;;;30.80;19.05;;;;;;;20.29;21.14;96599.69;5054345;28;20171;-84
2022/03/15 07:09:55;;;;;;;39.10;19.30;;;;;;;19.98;22.02;96598.06;5055102;28;20553;-84
2022/03/15 07:12:22;;;;;;;38.28;18.52;;;;;;;19.69;21.70;96567.63;5071639;28;20159;-84
2022/03/15 07:14:49;;;;;;;32.80;18.23;;;;;;;19.09;22.21;96561.31;5054872;28;20173;-84
2022/03/15 07:17:17;;;;;;;28.27;17.27;;;;;;;18.41;22.28;96554.13;5054879;28;20279;-85
2022/03/15 07:19:42;;;;;;;24.75;15.50;;;;;;;17.82;22.86;96545.72;5071884;28;20178;-84
2022/03/15 07:22:08;;;;;;;30.10;16.70;;;;;;;17.42;23.85;96545.91;5055217;28;20216;-84
2022/03/15 07:24:35;;;;;;;27.92;16.33;;;;;;;17.13;23.79;96597.78;5055151;28;20285;-84
2022/03/15 07:27:01;;;;;;;32.08;16.58;;;;;;;16.30;24.39;96555.94;5071428;28;20182;-83
2022/03/15 07:29:27;;;;;;;24.08;15.52;;;;;;;15.76;25.68;96564.84;5072536;28;20250;-85
2022/03/15 07:31:54;;;;;;;27.60;16.85;;;;;;;15.65;25.78;96594.66;5054286;28;20289;-85
2022/03/15 07:34:19;;;;;;;23.65;15.45;;;;;;;14.66;26.43;96554.31;5054555;28;20177;-85
2022/03/15 07:36:45;;;;;;;28.30;17.27;;;;;;;14.18;27.67;96518.91;5072403;28;20167;-84
2022/03/15 07:39:11;;;;;;;37.00;17.67;;;;;;;13.77;28.02;96532.78;5072581;28;20181;-84
2022/03/15 07:41:39;;;;;;;27.03;16.33;;;;;;;13.69;29.06;96604.38;5072520;28;20241;-87
2022/03/15 07:44:08;;;;;;;28.20;15.70;;;;;;;12.75;29.49;96549.66;5054590;28;20174;-85
2022/03/15 07:46:36;;;;;;;30.07;15.67;;;;;;;12.37;31.02;96481.03;5052183;28;20166;-86
2022/03/15 07:49:02;;;;;;;28.77;15.53;;;;;;;12.68;30.12;96591.03;5072409;28;20194;-85
2022/03/15 07:51:28;;;;;;;28.13;16.07;;;;;;;12.38;31.09;96529.38;5072113;28;20166;-85
2022/03/15 07:53:54;;;;;;;33.40;16.17;;;;;;;12.94;31.03;96583.47;5072213;28;20720;-84
2022/03/15 07:56:20;;;;;;;31.90;16.40;;;;;;;13.23;30.68;96587.97;5054093;28;20168;-83
2022/03/15 07:58:47;;;;;;;34.30;16.70;;;;;;;13.47;30.53;96598.22;5053526;28;20257;-83
2022/03/15 08:01:13;;;;;;;30.60;17.57;;;;;;;13.31;30.08;96595.78;5053987;28;20174;-83
2022/03/15 08:03:38;;;;;;;43.20;16.60;;;;;;;13.06;30.89;96565.34;5054143;28;20269;-86
2022/03/15 08:06:04;;;;;;;35.37;15.83;;;;;;;12.39;29.70;96480.84;5071930;28;20712;-86
2022/03/15 08:08:30;;;;;;;34.53;15.70;;;;;;;12.06;30.64;96485.66;5071901;28;20640;-85
2022/03/15 08:10:55;;;;;;;30.73;16.17;;;;;;;12.70;31.38;96570.53;5054127;28;20166;-84
2022/03/15 08:13:21;;;;;;;28.27;16.67;;;;;;;12.53;31.21;96538.19;5071636;28;20175;-82
2022/03/15 08:15:46;;;;;;;34.07;16.60;;;;;;;12.05;31.84;96463.72;5071788;28;20546;-84
2022/03/15 08:18:12;;;;;;;31.33;17.17;;;;;;;12.36;30.98;96577.13;5070817;28;20182;-83
2022/03/15 08:20:41;;;;;;;31.10;16.63;;;;;;;12.04;32.80;96520.13;5071565;28;20266;-82
2022/03/15 08:23:09;;;;;;;34.97;15.50;;;;;;;12.64;31.53;96568.59;5071542;28;20175;-83
2022/03/15 08:25:35;;;;;;;34.87;16.03;;;;;;;12.49;31.67;96531.59;5071403;28;20198;-82
2022/03/15 08:28:01;;;;;;;31.00;15.77;;;;;;;12.56;30.90;96524.59;5053353;28;20177;-83
2022/03/15 08:30:27;;;;;;;35.30;17.07;;;;;;;12.54;30.27;96523.16;5053787;28;20261;-84
2022/03/15 08:32:53;;;;;;;28.83;16.37;;;;;;;12.29;30.71;96504.88;5070905;28;20247;-82
2022/03/15 08:35:19;;;;;;;30.53;15.60;;;;;;;12.33;31.60;96566.09;5069999;28;20256;-83
2022/03/15 08:37:50;;;;;;;41.73;17.53;;;;;;;12.01;32.21;96527.63;5050998;28;20588;-83
2022/03/15 08:40:16;;;;;;;36.27;17.37;;;;;;;11.67;31.86;96494.53;5068837;28;20254;-82
2022/03/15 08:42:42;;;;;;;37.20;16.17;;;;;;;11.35;32.01;96484.22;5070066;28;20174;-82
2022/03/15 08:45:09;;;;;;;32.93;17.33;;;;;;;11.42;32.79;96498.31;5070577;28;20190;-84
2022/03/15 08:47:35;;;;;;;34.77;17.47;;;;;;;11.81;33.72;96513.25;5071081;28;20170;-83
2022/03/15 08:50:01;;;;;;;33.93;17.67;;;;;;;12.11;31.91;96551.91;5071251;28;20318;-81
2022/03/15 08:52:26;;;;;;;36.23;18.73;;;;;;;11.89;31.86;96482.34;5069581;28;20566;-81
2022/03/15 08:54:52;;;;;;;35.93;18.40;;;;;;;11.95;31.80;96515.09;5071158;28;20532;-83
2022/03/15 08:57:17;;;;;;;30.70;18.07;;;;;;;12.28;32.09;96505.09;5052603;28;20269;-83
2022/03/15 08:59:43;;;;;;;33.60;17.23;;;;;;;11.73;32.42;96493.81;5070710;28;20166;-83
2022/03/15 09:02:12;;;;;;;36.13;18.00;;;;;;;11.49;33.03;96480.81;5069831;28;20269;-82
2022/03/15 09:04:38;;;;;;;29.17;16.37;;;;;;;11.78;32.40;96495.13;5070623;28;20190;-81
2022/03/15 09:07:04;;;;;;;35.20;17.10;;;;;;;12.41;31.90;96535.16;5052688;28;20243;-81
2022/03/15 09:09:30;;;;;;;34.63;17.20;;;;;;;11.59;32.15;96449.72;5070804;28;20175;-80
2022/03/15 09:11:55;;;;;;;32.80;19.37;;;;;;;12.02;31.76;96463.28;5071274;28;20663;-79
2022/03/15 09:14:21;;;;;;;34.17;17.80;;;;;;;12.59;32.36;96520.75;5069515;28;20873;-80
2022/03/15 09:16:46;;;;;;;36.13;18.57;;;;;;;13.15;32.07;96528.03;5070087;28;20185;-81
2022/03/15 09:19:12;;;;;;;35.70;17.33;;;;;;;13.21;30.70;96514.09;5070173;28;20167;-81
2022/03/15 09:21:37;;;;;;;40.37;16.93;;;;;;;13.20;31.26;96517.72;5070456;28;20586;-81
2022/03/15 09:24:03;;;;;;;34.23;18.27;;;;;;;13.05;30.45;96500.22;5070543;28;20228;-81
2022/03/15 09:26:29;;;;;;;35.30;16.90;;;;;;;12.91;30.44;96491.31;5071147;28;20259;-81
2022/03/15 09:28:54;;;;;;;33.63;18.73;;;;;;;12.75;30.63;96455.34;5070740;28;20179;-81
2022/03/15 09:31:20;;;;;;;34.57;17.63;;;;;;;12.67;32.60;96444.88;5074434;28;20166;-81
2022/03/15 09:33:46;;;;;;;33.37;17.97;;;;;;;12.40;33.00;96461.38;5073723;28;20685;-81
2022/03/15 09:36:14;;;;;;;35.77;17.10;;;;;;;12.61;31.68;96502.91;5073722;28;20174;-81
2022/03/15 09:38:39;;;;;;;37.97;19.13;;;;;;;12.00;32.52;96458.16;5073872;28;20659;-81
2022/03/15 09:41:06;;;;;;;35.63;17.20;;;;;;;12.48;32.81;96496.44;5073787;28;20181;-81
2022/03/15 09:43:38;;;;;;;32.03;16.97;;;;;;;12.54;31.07;96442.03;5074022;28;20171;-81
2022/03/15 09:46:05;;;;;;;36.10;17.00;;;;;;;12.88;30.88;96451.22;5056034;28;20708;-82
2022/03/15 09:48:30;;;;;;;31.27;17.00;;;;;;;13.11;30.65;96446.59;5074370;28;20636;-82
2022/03/15 09:50:56;;;;;;;35.73;16.80;;;;;;;13.53;31.04;96467.00;5073948;28;20175;-82
2022/03/15 09:53:22;;;;;;;35.97;17.60;;;;;;;13.77;31.08;96469.25;5074681;28;20552;-82
2022/03/15 09:55:48;;;;;;;33.93;18.30;;;;;;;13.59;31.69;96416.78;5056133;28;20174;-81
2022/03/15 09:58:19;;;;;;;34.17;16.87;;;;;;;13.76;28.85;96453.56;5055840;28;20170;-81
2022/03/15 10:00:50;;;;;;;30.73;17.33;;;;;;;13.84;29.81;96462.19;5089810;28;20666;-81
2022/03/15 10:03:16;;;;;;;28.47;16.10;;;;;;;13.62;28.75;96433.28;5052712;28;20191;-82
2022/03/15 10:05:42;;;;;;;32.33;18.17;;;;;;;13.47;29.47;96436.84;5053856;28;20291;-82
2022/03/15 10:08:07;;;;;;;33.50;17.23;;;;;;;12.83;29.86;96398.91;5073824;28;20658;-81
2022/03/15 10:10:33;;;;;;;33.23;16.77;;;;;;;12.93;29.77;96456.75;5056024;28;20163;-82
2022/03/15 10:12:59;;;;;;;31.70;15.87;;;;;;;12.45;31.63;96398.25;5055643;28;20553;-81
2022/03/15 10:15:25;;;;;;;34.07;18.27;;;;;;;12.65;31.69;96398.47;5073927;28;20227;-82
2022/03/15 10:17:53;;;;;;;27.83;16.63;;;;;;;13.04;33.10;96443.88;5055841;28;20592;-82
2022/03/15 10:20:23;;;;;;;26.90;15.40;;;;;;;13.18;30.29;96439.59;5055656;28;20194;-80
2022/03/15 10:23:03;;;;;;;28.80;14.80;;;;;;;13.23;30.56;96436.38;5073634;28;20162;-82
2022/03/15 10:25:31;;;;;;;24.00;14.40;;;;;;;13.21;30.70;96404.84;5072395;28;20195;-82
2022/03/15 10:28:02;;;;;;;25.13;12.53;;;;;;;13.39;29.10;96425.56;5055822;28;20273;-82
2022/03/15 10:30:30;;;;;;;31.37;13.67;;;;;;;13.28;28.14;96403.06;5069738;28;20220;-81
2022/03/15 10:32:59;;;;;;;33.27;14.47;;;;;;;13.32;28.58;96400.88;5073419;28;20287;-82
2022/03/15 10:35:27;;;;;;;30.80;14.60;;;;;;;13.46;29.43;96416.66;5071803;28;20163;-81
2022/03/15 10:37:54;;;;;;;18.33;11.60;;;;;;;13.33;28.12;96379.50;5073469;28;20170;-82
2022/03/15 10:40:33;;;;;;;23.43;11.50;;;;;;;13.53;28.29;96408.78;5072728;28;20174;-81
2022/03/15 10:43:25;;;;;;;19.83;10.20;;;;;;;13.36;28.37;96376.50;5071842;28;20168;-80
2022/03/15 10:45:57;;;;;;;15.83;7.77;;;;;;;13.55;26.52;96390.91;5054004;28;20190;-82
2022/03/15 10:48:30;;;;;;;13.20;6.57;;;;;;;13.27;25.33;96367.03;5036232;28;20575;-82
2022/03/15 10:50:59;;;;;;;11.30;6.90;;;;;;;13.51;26.94;96390.44;5054428;28;20171;-83
2022/03/15 10:53:34;;;;;;;15.43;7.80;;;;;;;13.49;28.13;96381.09;5051384;28;20167;-85
2022/03/15 10:56:16;;;;;;;14.00;5.73;;;;;;;13.43;26.55;96365.94;5072416;28;20173;-83
2022/03/15 10:58:44;;;;;;;11.20;5.80;;;;;;;13.52;26.79;96381.50;5073481;28;20167;-84
2022/03/15 11:01:10;;;;;;;12.73;6.70;;;;;;;13.51;26.31;96371.94;5073678;28;20257;-84
2022/03/15 11:03:36;;;;;;;12.40;6.50;;;;;;;13.24;27.28;96325.09;5074797;28;20191;-84
2022/03/15 11:06:08;;;;;;;18.33;7.83;;;;;;;13.53;27.80;96372.56;5055143;28;20202;-84
2022/03/15 11:08:36;;;;;;;15.20;7.73;;;;;;;13.58;28.36;96370.16;5070074;28;20174;-84
2022/03/15 11:11:06;;;;;;;15.47;6.90;;;;;;;13.12;28.23;96285.13;5070899;28;20208;-84
2022/03/15 11:13:32;;;;;;;13.07;7.53;;;;;;;13.38;28.26;96320.75;5071004;28;20860;-83
2022/03/15 11:15:59;;;;;;;11.30;6.07;;;;;;;13.27;26.90;96297.47;5052128;28;20261;-84
2022/03/15 11:18:30;;;;;;;12.80;6.33;;;;;;;13.42;29.16;96314.06;5072498;28;20261;-83
2022/03/15 11:20:58;;;;;;;19.20;6.60;;;;;;;13.52;28.03;96341.00;5060995;28;20182;-83